Terminal Aerodrome Forecast
Issued by NWS

Current Version | Previous Version | Graphics & Text | Print | Product List | Glossary On
Versions: 1 2 3 4 5 6 7 8 9 10 11 12 13 14
134
FTUS41 KPBZ 051722
TAFMGW
TAF
KMGW 051722Z 0518/0618 28005KT P6SM SCT030
     FM052200 VRB03KT P6SM BKN200
     FM061300 10009KT P6SM -RA OVC040
     FM061500 12010G22KT 3SM -RA OVC025=

USA.gov is the U.S. government's official web portal to all federal, state and local government web resources and services.